sensor_id;sensor_type;location;lat;lon;timestamp;pressure;altitude;pressure_sealevel;temperature;humidity
13709;BME280;54933;51.908;7.730;2023-11-21T00:02:18;100334.06;;;22.31;65.27
13709;BME280;54933;51.908;7.730;2023-11-21T00:04:43;100335.94;;;22.30;65.08
13709;BME280;54933;51.908;7.730;2023-11-21T00:07:08;100341.13;;;22.32;65.20
13709;BME280;54933;51.908;7.730;2023-11-21T00:09:34;100348.19;;;22.33;65.59
13709;BME280;54933;51.908;7.730;2023-11-21T00:12:00;100347.13;;;22.34;64.92
13709;BME280;54933;51.908;7.730;2023-11-21T00:14:25;100344.41;;;22.34;65.20
13709;BME280;54933;51.908;7.730;2023-11-21T00:16:50;100347.72;;;22.36;64.88
13709;BME280;54933;51.908;7.730;2023-11-21T00:19:16;100352.06;;;22.37;64.92
13709;BME280;54933;51.908;7.730;2023-11-21T00:21:41;100350.19;;;22.37;64.99
13709;BME280;54933;51.908;7.730;2023-11-21T00:24:09;100351.00;;;22.38;65.26
13709;BME280;54933;51.908;7.730;2023-11-21T00:26:34;100351.59;;;22.40;65.01
13709;BME280;54933;51.908;7.730;2023-11-21T00:29:02;100353.25;;;22.41;64.88
13709;BME280;54933;51.908;7.730;2023-11-21T00:31:27;100354.31;;;22.40;65.42
13709;BME280;54933;51.908;7.730;2023-11-21T00:33:53;100364.66;;;22.43;64.88
13709;BME280;54933;51.908;7.730;2023-11-21T00:36:19;100360.06;;;22.43;65.01
13709;BME280;54933;51.908;7.730;2023-11-21T00:38:44;100358.19;;;22.44;64.69
13709;BME280;54933;51.908;7.730;2023-11-21T00:41:09;100358.78;;;22.46;65.00
13709;BME280;54933;51.908;7.730;2023-11-21T00:43:34;100355.00;;;22.47;64.88
13709;BME280;54933;51.908;7.730;2023-11-21T00:46:04;100353.94;;;22.48;64.59
13709;BME280;54933;51.908;7.730;2023-11-21T00:48:29;100362.06;;;22.48;65.09
13709;BME280;54933;51.908;7.730;2023-11-21T00:50:54;100362.88;;;22.48;64.77
13709;BME280;54933;51.908;7.730;2023-11-21T00:53:21;100361.00;;;22.49;64.54
13709;BME280;54933;51.908;7.730;2023-11-21T00:55:46;100369.97;;;22.49;64.54
13709;BME280;54933;51.908;7.730;2023-11-21T00:58:11;100365.34;;;22.50;64.66
13709;BME280;54933;51.908;7.730;2023-11-21T01:00:37;100369.72;;;22.51;64.73
13709;BME280;54933;51.908;7.730;2023-11-21T01:03:04;100374.06;;;22.52;64.61
13709;BME280;54933;51.908;7.730;2023-11-21T01:05:30;100369.50;;;22.52;64.49
13709;BME280;54933;51.908;7.730;2023-11-21T01:07:55;100370.34;;;22.53;64.77
13709;BME280;54933;51.908;7.730;2023-11-21T01:10:20;100381.97;;;22.53;64.58
13709;BME280;54933;51.908;7.730;2023-11-21T01:12:45;100370.91;;;22.55;64.37
13709;BME280;54933;51.908;7.730;2023-11-21T01:15:11;100383.41;;;22.56;64.49
13709;BME280;54933;51.908;7.730;2023-11-21T01:17:37;100375.28;;;22.56;64.52
13709;BME280;54933;51.908;7.730;2023-11-21T01:20:03;100374.44;;;22.55;64.56
13709;BME280;54933;51.908;7.730;2023-11-21T01:22:31;100371.50;;;22.57;64.22
13709;BME280;54933;51.908;7.730;2023-11-21T01:24:57;100373.97;;;22.58;64.60
13709;BME280;54933;51.908;7.730;2023-11-21T01:27:23;100377.53;;;22.59;64.50
13709;BME280;54933;51.908;7.730;2023-11-21T01:29:48;100380.22;;;22.59;64.47
13709;BME280;54933;51.908;7.730;2023-11-21T01:32:13;100387.50;;;22.58;64.42
13709;BME280;54933;51.908;7.730;2023-11-21T01:34:38;100382.09;;;22.58;64.59
13709;BME280;54933;51.908;7.730;2023-11-21T01:37:04;100378.59;;;22.58;64.40
13709;BME280;54933;51.908;7.730;2023-11-21T01:39:31;100384.56;;;22.60;64.12
13709;BME280;54933;51.908;7.730;2023-11-21T01:41:57;100390.00;;;22.60;64.37
13709;BME280;54933;51.908;7.730;2023-11-21T01:44:26;100382.69;;;22.60;63.89
13709;BME280;54933;51.908;7.730;2023-11-21T01:46:51;100384.56;;;22.60;64.19
13709;BME280;54933;51.908;7.730;2023-11-21T01:49:17;100396.00;;;22.62;64.26
13709;BME280;54933;51.908;7.730;2023-11-21T01:51:48;100384.34;;;22.61;64.23
13709;BME280;54933;51.908;7.730;2023-11-21T01:54:14;100387.03;;;22.61;64.36
13709;BME280;54933;51.908;7.730;2023-11-21T01:56:40;100396.00;;;22.62;64.09
13709;BME280;54933;51.908;7.730;2023-11-21T01:59:05;100396.00;;;22.62;64.45
13709;BME280;54933;51.908;7.730;2023-11-21T02:01:32;100401.41;;;22.62;64.19
13709;BME280;54933;51.908;7.730;2023-11-21T02:03:58;100401.41;;;22.62;64.15
13709;BME280;54933;51.908;7.730;2023-11-21T02:06:23;100406.84;;;22.62;64.30
13709;BME280;54933;51.908;7.730;2023-11-21T02:08:49;100403.06;;;22.63;64.33
13709;BME280;54933;51.908;7.730;2023-11-21T02:11:15;100415.56;;;22.64;64.10
13709;BME280;54933;51.908;7.730;2023-11-21T02:13:41;100408.47;;;22.63;64.15
13709;BME280;54933;51.908;7.730;2023-11-21T02:16:11;100420.97;;;22.64;64.38
13709;BME280;54933;51.908;7.730;2023-11-21T02:18:38;100420.97;;;22.64;64.04
13709;BME280;54933;51.908;7.730;2023-11-21T02:21:04;100428.03;;;22.65;64.15
13709;BME280;54933;51.908;7.730;2023-11-21T02:23:29;100429.09;;;22.64;64.15
13709;BME280;54933;51.908;7.730;2023-11-21T02:25:55;100431.81;;;22.64;64.06
13709;BME280;54933;51.908;7.730;2023-11-21T02:28:20;100438.84;;;22.65;64.03
13709;BME280;54933;51.908;7.730;2023-11-21T02:30:51;100432.63;;;22.64;63.84
13709;BME280;54933;51.908;7.730;2023-11-21T02:33:20;100438.84;;;22.65;64.01
13709;BME280;54933;51.908;7.730;2023-11-21T02:35:46;100437.22;;;22.64;63.89
13709;BME280;54933;51.908;7.730;2023-11-21T02:38:11;100431.81;;;22.64;63.86
13709;BME280;54933;51.908;7.730;2023-11-21T02:40:37;100437.22;;;22.64;63.86
13709;BME280;54933;51.908;7.730;2023-11-21T02:43:02;100441.56;;;22.65;63.90
13709;BME280;54933;51.908;7.730;2023-11-21T02:45:27;100447.81;;;22.65;64.02
13709;BME280;54933;51.908;7.730;2023-11-21T02:47:53;100443.47;;;22.64;63.74
13709;BME280;54933;51.908;7.730;2023-11-21T02:50:18;100441.56;;;22.65;64.16
13709;BME280;54933;51.908;7.730;2023-11-21T02:52:44;100451.34;;;22.66;64.10
13709;BME280;54933;51.908;7.730;2023-11-21T02:55:09;100443.00;;;22.67;63.96
13709;BME280;54933;51.908;7.730;2023-11-21T02:57:34;100449.22;;;22.68;63.64
13709;BME280;54933;51.908;7.730;2023-11-21T03:00:00;100444.88;;;22.67;64.16
13709;BME280;54933;51.908;7.730;2023-11-21T03:02:25;100438.38;;;22.68;64.10
13709;BME280;54933;51.908;7.730;2023-11-21T03:04:51;100451.13;;;22.67;63.94
13709;BME280;54933;51.908;7.730;2023-11-21T03:07:16;100442.16;;;22.67;63.75
13709;BME280;54933;51.908;7.730;2023-11-21T03:09:44;100447.56;;;22.67;64.04
13709;BME280;54933;51.908;7.730;2023-11-21T03:12:10;100453.00;;;22.67;63.66
13709;BME280;54933;51.908;7.730;2023-11-21T03:14:37;100456.53;;;22.67;63.97
13709;BME280;54933;51.908;7.730;2023-11-21T03:17:02;100451.91;;;22.68;64.15
13709;BME280;54933;51.908;7.730;2023-11-21T03:19:30;100457.09;;;22.69;64.35
13709;BME280;54933;51.908;7.730;2023-11-21T03:21:56;100464.44;;;22.69;64.12
13709;BME280;54933;51.908;7.730;2023-11-21T03:24:21;100461.72;;;22.69;63.84
13709;BME280;54933;51.908;7.730;2023-11-21T03:26:47;100460.66;;;22.70;64.09
13709;BME280;54933;51.908;7.730;2023-11-21T03:29:13;100461.72;;;22.69;63.95
13709;BME280;54933;51.908;7.730;2023-11-21T03:31:39;100472.56;;;22.69;63.99
13709;BME280;54933;51.908;7.730;2023-11-21T03:34:05;100477.97;;;22.69;64.03
13709;BME280;54933;51.908;7.730;2023-11-21T03:36:31;100474.66;;;22.67;64.17
13709;BME280;54933;51.908;7.730;2023-11-21T03:38:56;100477.97;;;22.69;64.15
13709;BME280;54933;51.908;7.730;2023-11-21T03:41:21;100476.91;;;22.70;64.07
13709;BME280;54933;51.908;7.730;2023-11-21T03:43:47;100483.38;;;22.69;64.00
13709;BME280;54933;51.908;7.730;2023-11-21T03:46:12;100483.38;;;22.69;63.93
13709;BME280;54933;51.908;7.730;2023-11-21T03:48:38;100481.72;;;22.68;63.82
13709;BME280;54933;51.908;7.730;2023-11-21T03:51:03;100488.81;;;22.69;63.97
13709;BME280;54933;51.908;7.730;2023-11-21T03:53:29;100494.22;;;22.69;64.07
13709;BME280;54933;51.908;7.730;2023-11-21T03:55:54;100499.41;;;22.70;64.08
13709;BME280;54933;51.908;7.730;2023-11-21T03:58:19;100503.97;;;22.70;63.95
13709;BME280;54933;51.908;7.730;2023-11-21T04:00:46;100497.53;;;22.71;63.86
13709;BME280;54933;51.908;7.730;2023-11-21T04:03:12;100506.69;;;22.70;63.98
13709;BME280;54933;51.908;7.730;2023-11-21T04:05:38;100508.34;;;22.71;63.92
13709;BME280;54933;51.908;7.730;2023-11-21T04:08:04;100518.38;;;22.70;63.97
13709;BME280;54933;51.908;7.730;2023-11-21T04:10:29;100522.72;;;22.71;63.82
13709;BME280;54933;51.908;7.730;2023-11-21T04:12:54;100524.63;;;22.71;63.83
13709;BME280;54933;51.908;7.730;2023-11-21T04:15:19;100530.03;;;22.71;64.03
13709;BME280;54933;51.908;7.730;2023-11-21T04:17:45;100525.41;;;22.71;64.15
13709;BME280;54933;51.908;7.730;2023-11-21T04:20:10;100536.13;;;22.66;63.95
13709;BME280;54933;51.908;7.730;2023-11-21T04:22:39;100530.13;;;22.53;63.99
13709;BME280;54933;51.908;7.730;2023-11-21T04:25:14;100538.19;;;22.41;64.40
13709;BME280;54933;51.908;7.730;2023-11-21T04:27:40;100538.28;;;22.35;64.55
13709;BME280;54933;51.908;7.730;2023-11-21T04:30:06;100535.19;;;22.31;64.53
13709;BME280;54933;51.908;7.730;2023-11-21T04:32:31;100531.91;;;22.29;64.87
13709;BME280;54933;51.908;7.730;2023-11-21T04:34:57;100534.59;;;22.29;64.98
13709;BME280;54933;51.908;7.730;2023-11-21T04:37:22;100536.72;;;22.27;65.13
13709;BME280;54933;51.908;7.730;2023-11-21T04:39:48;100541.31;;;22.27;65.62
13709;BME280;54933;51.908;7.730;2023-11-21T04:42:13;100544.22;;;22.14;65.47
13709;BME280;54933;51.908;7.730;2023-11-21T04:44:38;100546.88;;;22.02;65.58
13709;BME280;54933;51.908;7.730;2023-11-21T04:47:06;100539.88;;;21.95;65.93
13709;BME280;54933;51.908;7.730;2023-11-21T04:49:31;100540.56;;;21.90;66.29
13709;BME280;54933;51.908;7.730;2023-11-21T04:51:57;100543.97;;;21.86;66.45
13709;BME280;54933;51.908;7.730;2023-11-21T04:54:22;100544.41;;;21.83;66.30
13709;BME280;54933;51.908;7.730;2023-11-21T04:56:48;100541.72;;;21.83;66.77
13709;BME280;54933;51.908;7.730;2023-11-21T04:59:13;100545.47;;;21.82;66.91
13709;BME280;54933;51.908;7.730;2023-11-21T05:01:38;100556.72;;;21.79;66.72
13709;BME280;54933;51.908;7.730;2023-11-21T05:04:04;100562.41;;;21.71;67.08
13709;BME280;54933;51.908;7.730;2023-11-21T05:06:31;100559.56;;;21.66;67.40
13709;BME280;54933;51.908;7.730;2023-11-21T05:08:56;100562.50;;;21.64;67.26
13709;BME280;54933;51.908;7.730;2023-11-21T05:11:28;100553.13;;;21.67;67.67
13709;BME280;54933;51.908;7.730;2023-11-21T05:13:54;100558.66;;;21.72;67.63
13709;BME280;54933;51.908;7.730;2023-11-21T05:16:21;100559.44;;;21.79;67.74
13709;BME280;54933;51.908;7.730;2023-11-21T05:18:47;100560.03;;;21.81;67.76
13709;BME280;54933;51.908;7.730;2023-11-21T05:21:12;100557.09;;;21.82;67.74
13709;BME280;54933;51.908;7.730;2023-11-21T05:23:37;100559.13;;;21.87;67.35
13709;BME280;54933;51.908;7.730;2023-11-21T05:26:03;100569.50;;;21.90;67.33
13709;BME280;54933;51.908;7.730;2023-11-21T05:28:28;100567.38;;;21.92;66.98
13709;BME280;54933;51.908;7.730;2023-11-21T05:30:54;100571.53;;;21.94;67.21
13709;BME280;54933;51.908;7.730;2023-11-21T05:33:19;100574.00;;;21.96;67.14
13709;BME280;54933;51.908;7.730;2023-11-21T05:35:45;100572.72;;;21.98;67.56
13709;BME280;54933;51.908;7.730;2023-11-21T05:38:10;100583.91;;;22.02;67.08
13709;BME280;54933;51.908;7.730;2023-11-21T05:40:36;100583.44;;;22.05;66.98
13709;BME280;54933;51.908;7.730;2023-11-21T05:43:01;100582.41;;;22.06;66.53
13709;BME280;54933;51.908;7.730;2023-11-21T05:45:27;100581.13;;;22.08;66.76
13709;BME280;54933;51.908;7.730;2023-11-21T05:47:54;100591.72;;;22.10;66.64
13709;BME280;54933;51.908;7.730;2023-11-21T05:50:19;100595.03;;;22.12;66.59
13709;BME280;54933;51.908;7.730;2023-11-21T05:52:45;100598.34;;;22.14;66.52
13709;BME280;54933;51.908;7.730;2023-11-21T05:55:11;100596.19;;;22.16;66.46
13709;BME280;54933;51.908;7.730;2023-11-21T05:57:37;100614.13;;;22.17;66.44
13709;BME280;54933;51.908;7.730;2023-11-21T06:00:08;100615.97;;;22.16;66.30
13709;BME280;54933;51.908;7.730;2023-11-21T06:02:37;100621.78;;;22.02;66.47
13709;BME280;54933;51.908;7.730;2023-11-21T06:05:03;100619.84;;;21.91;66.31
13709;BME280;54933;51.908;7.730;2023-11-21T06:07:29;100623.25;;;21.86;66.91
13709;BME280;54933;51.908;7.730;2023-11-21T06:09:54;100622.41;;;21.86;66.77
13709;BME280;54933;51.908;7.730;2023-11-21T06:12:20;100629.47;;;21.87;67.03
13709;BME280;54933;51.908;7.730;2023-11-21T06:14:45;100635.09;;;21.85;67.45
13709;BME280;54933;51.908;7.730;2023-11-21T06:17:11;100634.88;;;21.87;67.32
13709;BME280;54933;51.908;7.730;2023-11-21T06:19:36;100642.19;;;21.86;67.33
13709;BME280;54933;51.908;7.730;2023-11-21T06:22:01;100649.00;;;21.89;67.25
13709;BME280;54933;51.908;7.730;2023-11-21T06:24:26;100653.13;;;21.91;67.08
13709;BME280;54933;51.908;7.730;2023-11-21T06:26:52;100658.91;;;21.95;67.31
13709;BME280;54933;51.908;7.730;2023-11-21T06:29:17;100663.06;;;21.97;67.36
13709;BME280;54933;51.908;7.730;2023-11-21T06:31:42;100660.34;;;21.97;67.27
13709;BME280;54933;51.908;7.730;2023-11-21T06:34:08;100660.75;;;22.01;67.26
13709;BME280;54933;51.908;7.730;2023-11-21T06:36:35;100666.72;;;22.03;67.07
13709;BME280;54933;51.908;7.730;2023-11-21T06:39:01;100670.88;;;22.05;67.19
13709;BME280;54933;51.908;7.730;2023-11-21T06:41:26;100673.13;;;22.08;67.06
13709;BME280;54933;51.908;7.730;2023-11-21T06:43:51;100667.47;;;22.10;66.85
13709;BME280;54933;51.908;7.730;2023-11-21T06:46:18;100676.22;;;22.12;66.90
13709;BME280;54933;51.908;7.730;2023-11-21T06:48:45;100679.94;;;22.11;66.88
13709;BME280;54933;51.908;7.730;2023-11-21T06:51:10;100684.41;;;22.05;67.09
13709;BME280;54933;51.908;7.730;2023-11-21T06:53:36;100691.53;;;22.00;66.88
13709;BME280;54933;51.908;7.730;2023-11-21T06:56:02;100691.44;;;21.88;66.83
13709;BME280;54933;51.908;7.730;2023-11-21T06:58:27;100697.53;;;21.84;66.88
13709;BME280;54933;51.908;7.730;2023-11-21T07:00:52;100705.06;;;20.26;65.51
13709;BME280;54933;51.908;7.730;2023-11-21T07:03:18;100726.09;;;19.65;63.81
13709;BME280;54933;51.908;7.730;2023-11-21T07:05:44;100716.69;;;20.64;63.36
13709;BME280;54933;51.908;7.730;2023-11-21T07:08:09;100716.28;;;21.05;63.06
13709;BME280;54933;51.908;7.730;2023-11-21T07:10:35;100721.53;;;21.24;63.17
13709;BME280;54933;51.908;7.730;2023-11-21T07:13:02;100727.06;;;21.36;62.95
13709;BME280;54933;51.908;7.730;2023-11-21T07:15:27;100735.72;;;21.44;62.85
13709;BME280;54933;51.908;7.730;2023-11-21T07:17:53;100730.50;;;21.49;62.67
13709;BME280;54933;51.908;7.730;2023-11-21T07:20:19;100734.78;;;21.57;63.00
13709;BME280;54933;51.908;7.730;2023-11-21T07:22:44;100730.38;;;21.63;62.60
13709;BME280;54933;51.908;7.730;2023-11-21T07:25:10;100738.66;;;21.68;62.92
13709;BME280;54933;51.908;7.730;2023-11-21T07:27:35;100737.38;;;21.70;62.81
13709;BME280;54933;51.908;7.730;2023-11-21T07:30:02;100744.84;;;21.75;62.87
13709;BME280;54933;51.908;7.730;2023-11-21T07:32:32;100736.56;;;21.70;62.83
13709;BME280;54933;51.908;7.730;2023-11-21T07:34:58;100747.84;;;21.67;63.29
13709;BME280;54933;51.908;7.730;2023-11-21T07:37:24;100751.56;;;21.66;64.03
13709;BME280;54933;51.908;7.730;2023-11-21T07:39:51;100753.34;;;21.53;65.06
13709;BME280;54933;51.908;7.730;2023-11-21T07:42:20;100754.38;;;21.52;65.10
13709;BME280;54933;51.908;7.730;2023-11-21T07:44:46;100762.50;;;21.52;65.65
13709;BME280;54933;51.908;7.730;2023-11-21T07:47:11;100762.88;;;21.56;66.12
13709;BME280;54933;51.908;7.730;2023-11-21T07:49:36;100757.88;;;21.60;66.01
13709;BME280;54933;51.908;7.730;2023-11-21T07:52:02;100759.50;;;21.61;66.02
13709;BME280;54933;51.908;7.730;2023-11-21T07:54:27;100767.78;;;21.66;65.89
13709;BME280;54933;51.908;7.730;2023-11-21T07:56:52;100767.34;;;21.69;66.07
13709;BME280;54933;51.908;7.730;2023-11-21T07:59:18;100771.28;;;21.73;66.04
13709;BME280;54933;51.908;7.730;2023-11-21T08:01:46;100779.81;;;21.76;65.95
13709;BME280;54933;51.908;7.730;2023-11-21T08:04:11;100772.28;;;21.78;66.27
13709;BME280;54933;51.908;7.730;2023-11-21T08:06:37;100776.44;;;21.81;65.92
13709;BME280;54933;51.908;7.730;2023-11-21T08:09:03;100780.56;;;21.83;65.97
13709;BME280;54933;51.908;7.730;2023-11-21T08:11:28;100784.72;;;21.86;65.79
13709;BME280;54933;51.908;7.730;2023-11-21T08:13:56;100789.69;;;21.89;65.97
13709;BME280;54933;51.908;7.730;2023-11-21T08:16:22;100789.69;;;21.89;65.51
13709;BME280;54933;51.908;7.730;2023-11-21T08:18:49;100793.63;;;21.93;65.98
13709;BME280;54933;51.908;7.730;2023-11-21T08:21:14;100796.91;;;21.95;65.32
13709;BME280;54933;51.908;7.730;2023-11-21T08:23:39;100805.41;;;21.98;65.45
13709;BME280;54933;51.908;7.730;2023-11-21T08:26:05;100810.59;;;22.00;65.35
13709;BME280;54933;51.908;7.730;2023-11-21T08:28:30;100814.97;;;22.01;65.24
13709;BME280;54933;51.908;7.730;2023-11-21T08:30:55;100818.25;;;22.03;65.44
13709;BME280;54933;51.908;7.730;2023-11-21T08:33:21;100822.66;;;22.04;65.16
13709;BME280;54933;51.908;7.730;2023-11-21T08:35:46;100825.97;;;22.06;65.18
13709;BME280;54933;51.908;7.730;2023-11-21T08:38:12;100831.97;;;22.08;65.00
13709;BME280;54933;51.908;7.730;2023-11-21T08:40:38;100837.97;;;22.10;65.10
13709;BME280;54933;51.908;7.730;2023-11-21T08:43:03;100836.91;;;22.11;65.07
13709;BME280;54933;51.908;7.730;2023-11-21T08:45:30;100835.88;;;22.12;65.05
13709;BME280;54933;51.908;7.730;2023-11-21T08:47:55;100835.66;;;22.13;64.88
13709;BME280;54933;51.908;7.730;2023-11-21T08:50:20;100840.84;;;22.15;64.76
13709;BME280;54933;51.908;7.730;2023-11-21T08:52:46;100845.19;;;22.16;64.93
13709;BME280;54933;51.908;7.730;2023-11-21T08:55:11;100844.16;;;22.17;64.74
13709;BME280;54933;51.908;7.730;2023-11-21T08:57:41;100843.09;;;22.18;64.92
13709;BME280;54933;51.908;7.730;2023-11-21T09:00:07;100846.44;;;22.20;65.02
13709;BME280;54933;51.908;7.730;2023-11-21T09:02:36;100847.03;;;22.22;64.78
13709;BME280;54933;51.908;7.730;2023-11-21T09:05:03;100859.50;;;22.23;64.97
13709;BME280;54933;51.908;7.730;2023-11-21T09:07:29;100851.16;;;22.24;64.67
13709;BME280;54933;51.908;7.730;2023-11-21T09:09:54;100865.31;;;22.26;64.69
13709;BME280;54933;51.908;7.730;2023-11-21T09:12:20;100867.19;;;22.26;64.95
13709;BME280;54933;51.908;7.730;2023-11-21T09:14:46;100865.09;;;22.28;64.85
13709;BME280;54933;51.908;7.730;2023-11-21T09:17:11;100875.91;;;22.28;65.00
13709;BME280;54933;51.908;7.730;2023-11-21T09:19:37;100873.81;;;22.30;64.56
13709;BME280;54933;51.908;7.730;2023-11-21T09:22:03;100878.16;;;22.31;64.75
13709;BME280;54933;51.908;7.730;2023-11-21T09:24:28;100883.59;;;22.31;64.60
13709;BME280;54933;51.908;7.730;2023-11-21T09:26:53;100885.84;;;22.34;64.35
13709;BME280;54933;51.908;7.730;2023-11-21T09:29:19;100884.59;;;22.36;64.51
13709;BME280;54933;51.908;7.730;2023-11-21T09:31:44;100891.66;;;22.37;64.50
13709;BME280;54933;51.908;7.730;2023-11-21T09:34:10;100893.31;;;22.38;64.56
13709;BME280;54933;51.908;7.730;2023-11-21T09:36:36;100887.53;;;22.35;64.27
13709;BME280;54933;51.908;7.730;2023-11-21T09:39:04;100900.50;;;22.26;64.80
13709;BME280;54933;51.908;7.730;2023-11-21T09:42:05;100901.00;;;22.17;64.88
13709;BME280;54933;51.908;7.730;2023-11-21T09:44:46;100912.69;;;22.11;65.01
13709;BME280;54933;51.908;7.730;2023-11-21T09:47:15;100915.25;;;22.06;65.12
13709;BME280;54933;51.908;7.730;2023-11-21T09:49:43;100915.69;;;22.03;65.49
13709;BME280;54933;51.908;7.730;2023-11-21T09:52:18;100924.84;;;22.02;65.54
13709;BME280;54933;51.908;7.730;2023-11-21T09:54:47;100924.00;;;22.01;65.92
13709;BME280;54933;51.908;7.730;2023-11-21T09:57:14;100924.00;;;22.01;65.67
13709;BME280;54933;51.908;7.730;2023-11-21T09:59:40;100923.78;;;22.03;65.76
13709;BME280;54933;51.908;7.730;2023-11-21T10:02:07;100921.09;;;22.03;65.74
13709;BME280;54933;51.908;7.730;2023-11-21T10:04:35;100929.22;;;22.03;65.59
13709;BME280;54933;51.908;7.730;2023-11-21T10:07:01;100926.28;;;22.04;65.61
13709;BME280;54933;51.908;7.730;2023-11-21T10:09:28;100932.31;;;22.06;65.48
13709;BME280;54933;51.908;7.730;2023-11-21T10:11:55;100931.28;;;22.07;65.64
13709;BME280;54933;51.908;7.730;2023-11-21T10:14:24;100934.56;;;22.09;65.78
13709;BME280;54933;51.908;7.730;2023-11-21T10:16:50;100937.28;;;22.09;65.67
13709;BME280;54933;51.908;7.730;2023-11-21T10:19:15;100934.34;;;22.11;65.52
13709;BME280;54933;51.908;7.730;2023-11-21T10:21:42;100941.22;;;22.13;65.58
13709;BME280;54933;51.908;7.730;2023-11-21T10:24:07;100935.56;;;22.15;65.89
13709;BME280;54933;51.908;7.730;2023-11-21T10:26:33;100936.41;;;22.15;65.60
13709;BME280;54933;51.908;7.730;2023-11-21T10:29:00;100938.91;;;22.17;65.23
13709;BME280;54933;51.908;7.730;2023-11-21T10:31:32;100940.56;;;22.18;65.05
13709;BME280;54933;51.908;7.730;2023-11-21T10:34:17;100944.31;;;22.17;65.48
13709;BME280;54933;51.908;7.730;2023-11-21T10:36:43;100942.22;;;22.19;65.22
13709;BME280;54933;51.908;7.730;2023-11-21T10:39:09;100949.28;;;22.20;65.45
13709;BME280;54933;51.908;7.730;2023-11-21T10:41:37;100953.16;;;22.06;65.43
13709;BME280;54933;51.908;7.730;2023-11-21T10:44:02;100958.22;;;21.96;65.59
13709;BME280;54933;51.908;7.730;2023-11-21T10:46:36;100959.47;;;21.93;65.92
13709;BME280;54933;51.908;7.730;2023-11-21T10:49:01;100964.91;;;21.87;65.74
13709;BME280;54933;51.908;7.730;2023-11-21T10:51:27;100967.44;;;21.82;66.06
13709;BME280;54933;51.908;7.730;2023-11-21T10:53:53;100970.38;;;21.80;65.96
13709;BME280;54933;51.908;7.730;2023-11-21T10:56:21;100975.78;;;21.80;66.29
13709;BME280;54933;51.908;7.730;2023-11-21T10:58:51;100972.25;;;21.80;66.51
13709;BME280;54933;51.908;7.730;2023-11-21T11:01:18;100981.63;;;21.77;66.42
13709;BME280;54933;51.908;7.730;2023-11-21T11:03:44;100980.78;;;21.77;66.53
13709;BME280;54933;51.908;7.730;2023-11-21T11:06:10;100982.69;;;21.76;66.67
13709;BME280;54933;51.908;7.730;2023-11-21T11:08:38;100983.50;;;21.77;66.44
13709;BME280;54933;51.908;7.730;2023-11-21T11:11:05;100989.50;;;21.79;66.62
13709;BME280;54933;51.908;7.730;2023-11-21T11:13:30;100993.69;;;21.81;66.83
13709;BME280;54933;51.908;7.730;2023-11-21T11:15:58;101001.34;;;21.84;66.68
13709;BME280;54933;51.908;7.730;2023-11-21T11:18:30;100995.28;;;21.89;66.73
13709;BME280;54933;51.908;7.730;2023-11-21T11:21:23;101003.19;;;21.90;66.38
13709;BME280;54933;51.908;7.730;2023-11-21T11:26:58;100987.75;;;21.97;66.18
13709;BME280;54933;51.908;7.730;2023-11-21T11:29:31;100986.47;;;22.00;66.21
13709;BME280;54933;51.908;7.730;2023-11-21T11:32:30;100992.50;;;22.02;66.25
13709;BME280;54933;51.908;7.730;2023-11-21T11:35:04;100989.34;;;22.05;66.25
13709;BME280;54933;51.908;7.730;2023-11-21T11:37:32;100992.69;;;22.07;65.88
13709;BME280;54933;51.908;7.730;2023-11-21T11:39:59;100993.53;;;22.07;65.72
13709;BME280;54933;51.908;7.730;2023-11-21T11:42:26;100999.75;;;22.08;65.60
13709;BME280;54933;51.908;7.730;2023-11-21T11:44:52;101003.06;;;22.10;65.51
13709;BME280;54933;51.908;7.730;2023-11-21T11:47:21;100997.44;;;22.11;65.77
13709;BME280;54933;51.908;7.730;2023-11-21T11:50:07;100997.22;;;22.13;65.59
13709;BME280;54933;51.908;7.730;2023-11-21T11:52:34;101000.53;;;22.15;65.28
13709;BME280;54933;51.908;7.730;2023-11-21T11:55:01;101003.03;;;22.16;65.40
13709;BME280;54933;51.908;7.730;2023-11-21T11:57:30;101010.09;;;22.17;65.70
13709;BME280;54933;51.908;7.730;2023-11-21T12:00:19;101018.00;;;22.19;65.02
13709;BME280;54933;51.908;7.730;2023-11-21T12:03:00;101007.19;;;22.19;65.39
13709;BME280;54933;51.908;7.730;2023-11-21T12:05:29;101015.09;;;22.20;65.15
13709;BME280;54933;51.908;7.730;2023-11-21T12:07:58;101015.91;;;22.21;64.81
13709;BME280;54933;51.908;7.730;2023-11-21T12:10:25;101020.28;;;22.22;64.82
13709;BME280;54933;51.908;7.730;2023-11-21T12:12:53;101031.69;;;22.24;65.15
13709;BME280;54933;51.908;7.730;2023-11-21T12:15:19;101022.97;;;22.22;65.04
13709;BME280;54933;51.908;7.730;2023-11-21T12:17:45;101025.25;;;22.25;65.07
13709;BME280;54933;51.908;7.730;2023-11-21T12:20:13;101038.78;;;22.25;65.04
13709;BME280;54933;51.908;7.730;2023-11-21T12:22:57;101041.06;;;22.28;65.11
13709;BME280;54933;51.908;7.730;2023-11-21T12:25:30;101044.81;;;22.27;64.84
13709;BME280;54933;51.908;7.730;2023-11-21T12:27:59;101060.63;;;22.30;64.72
13709;BME280;54933;51.908;7.730;2023-11-21T12:30:27;101061.66;;;22.29;64.49
13709;BME280;54933;51.908;7.730;2023-11-21T12:33:01;101047.09;;;22.30;64.58
13709;BME280;54933;51.908;7.730;2023-11-21T12:35:30;101058.53;;;22.32;64.84
13709;BME280;54933;51.908;7.730;2023-11-21T12:37:56;101061.25;;;22.32;64.88
13709;BME280;54933;51.908;7.730;2023-11-21T12:40:22;101052.06;;;22.33;64.86
13709;BME280;54933;51.908;7.730;2023-11-21T12:42:52;101071.00;;;22.33;64.73
13709;BME280;54933;51.908;7.730;2023-11-21T12:45:20;101069.16;;;22.33;64.42
13709;BME280;54933;51.908;7.730;2023-11-21T12:47:50;101071.63;;;22.35;64.37
13709;BME280;54933;51.908;7.730;2023-11-21T12:50:22;101070.78;;;22.34;64.58
13709;BME280;54933;51.908;7.730;2023-11-21T12:52:57;101077.03;;;22.35;64.44